sensor_id;sensor_type;location;lat;lon;timestamp;P1;durP1;ratioP1;P2;durP2;ratioP2
46717;SDS011;32448;44.960;-0.698;2022-11-20T00:01:07;15.32;;;7.85;;
46717;SDS011;32448;44.960;-0.698;2022-11-20T00:03:36;20.13;;;9.00;;
46717;SDS011;32448;44.960;-0.698;2022-11-20T00:06:04;16.85;;;8.48;;
46717;SDS011;32448;44.960;-0.698;2022-11-20T00:08:33;16.15;;;8.35;;
46717;SDS011;32448;44.960;-0.698;2022-11-20T00:11:08;17.60;;;8.77;;
46717;SDS011;32448;44.960;-0.698;2022-11-20T00:16:27;18.10;;;7.43;;
46717;SDS011;32448;44.960;-0.698;2022-11-20T00:18:58;19.30;;;9.27;;
46717;SDS011;32448;44.960;-0.698;2022-11-20T00:21:26;20.08;;;10.60;;
46717;SDS011;32448;44.960;-0.698;2022-11-20T00:23:55;24.30;;;10.25;;
46717;SDS011;32448;44.960;-0.698;2022-11-20T00:26:24;26.48;;;10.95;;
46717;SDS011;32448;44.960;-0.698;2022-11-20T00:28:54;20.80;;;10.90;;
46717;SDS011;32448;44.960;-0.698;2022-11-20T00:31:23;19.10;;;10.05;;
46717;SDS011;32448;44.960;-0.698;2022-11-20T00:33:51;19.13;;;10.07;;
46717;SDS011;32448;44.960;-0.698;2022-11-20T00:36:19;20.33;;;9.00;;
46717;SDS011;32448;44.960;-0.698;2022-11-20T00:38:51;12.15;;;6.45;;
46717;SDS011;32448;44.960;-0.698;2022-11-20T00:41:20;12.35;;;7.63;;
46717;SDS011;32448;44.960;-0.698;2022-11-20T00:43:48;16.42;;;8.60;;
46717;SDS011;32448;44.960;-0.698;2022-11-20T00:46:17;16.73;;;8.20;;
46717;SDS011;32448;44.960;-0.698;2022-11-20T00:48:50;18.15;;;9.38;;
46717;SDS011;32448;44.960;-0.698;2022-11-20T00:51:19;16.77;;;8.73;;
46717;SDS011;32448;44.960;-0.698;2022-11-20T00:53:48;18.92;;;9.50;;
46717;SDS011;32448;44.960;-0.698;2022-11-20T00:56:16;17.77;;;8.52;;
46717;SDS011;32448;44.960;-0.698;2022-11-20T00:58:46;19.20;;;9.02;;
46717;SDS011;32448;44.960;-0.698;2022-11-20T01:01:16;22.52;;;8.88;;
46717;SDS011;32448;44.960;-0.698;2022-11-20T01:06:22;16.23;;;7.88;;
46717;SDS011;32448;44.960;-0.698;2022-11-20T01:08:52;16.17;;;7.90;;
46717;SDS011;32448;44.960;-0.698;2022-11-20T01:11:22;17.02;;;7.57;;
46717;SDS011;32448;44.960;-0.698;2022-11-20T01:13:52;15.75;;;7.25;;
46717;SDS011;32448;44.960;-0.698;2022-11-20T01:16:33;15.77;;;8.05;;
46717;SDS011;32448;44.960;-0.698;2022-11-20T01:19:03;16.85;;;8.90;;
46717;SDS011;32448;44.960;-0.698;2022-11-20T01:21:33;14.57;;;8.30;;
46717;SDS011;32448;44.960;-0.698;2022-11-20T01:24:02;17.50;;;8.23;;
46717;SDS011;32448;44.960;-0.698;2022-11-20T01:26:32;18.60;;;8.80;;
46717;SDS011;32448;44.960;-0.698;2022-11-20T01:29:02;17.90;;;7.65;;
46717;SDS011;32448;44.960;-0.698;2022-11-20T01:31:34;15.90;;;8.50;;
46717;SDS011;32448;44.960;-0.698;2022-11-20T01:34:07;12.98;;;7.25;;
46717;SDS011;32448;44.960;-0.698;2022-11-20T01:36:41;12.20;;;7.57;;
46717;SDS011;32448;44.960;-0.698;2022-11-20T01:39:11;11.43;;;5.90;;
46717;SDS011;32448;44.960;-0.698;2022-11-20T01:41:40;16.92;;;6.97;;
46717;SDS011;32448;44.960;-0.698;2022-11-20T01:44:53;8.45;;;5.75;;
46717;SDS011;32448;44.960;-0.698;2022-11-20T01:47:38;12.13;;;6.05;;
46717;SDS011;32448;44.960;-0.698;2022-11-20T01:50:12;11.90;;;6.20;;
46717;SDS011;32448;44.960;-0.698;2022-11-20T01:52:49;12.23;;;6.47;;
46717;SDS011;32448;44.960;-0.698;2022-11-20T01:55:19;11.82;;;5.85;;
46717;SDS011;32448;44.960;-0.698;2022-11-20T01:57:51;12.80;;;7.43;;
46717;SDS011;32448;44.960;-0.698;2022-11-20T02:00:19;12.60;;;6.43;;
46717;SDS011;32448;44.960;-0.698;2022-11-20T02:02:51;12.73;;;6.63;;
46717;SDS011;32448;44.960;-0.698;2022-11-20T02:05:23;12.45;;;7.25;;
46717;SDS011;32448;44.960;-0.698;2022-11-20T02:08:03;10.25;;;6.20;;
46717;SDS011;32448;44.960;-0.698;2022-11-20T02:10:32;13.02;;;7.07;;
46717;SDS011;32448;44.960;-0.698;2022-11-20T02:13:00;12.13;;;6.90;;
46717;SDS011;32448;44.960;-0.698;2022-11-20T02:15:46;10.68;;;6.57;;
46717;SDS011;32448;44.960;-0.698;2022-11-20T02:18:14;14.18;;;6.40;;
46717;SDS011;32448;44.960;-0.698;2022-11-20T02:20:45;13.82;;;6.78;;
46717;SDS011;32448;44.960;-0.698;2022-11-20T02:26:21;12.55;;;6.25;;
46717;SDS011;32448;44.960;-0.698;2022-11-20T02:28:50;11.68;;;6.53;;
46717;SDS011;32448;44.960;-0.698;2022-11-20T02:31:17;12.13;;;6.88;;
46717;SDS011;32448;44.960;-0.698;2022-11-20T02:33:45;11.70;;;7.05;;
46717;SDS011;32448;44.960;-0.698;2022-11-20T02:36:13;11.77;;;6.13;;
46717;SDS011;32448;44.960;-0.698;2022-11-20T02:38:42;13.57;;;6.20;;
46717;SDS011;32448;44.960;-0.698;2022-11-20T02:41:10;9.25;;;5.30;;
46717;SDS011;32448;44.960;-0.698;2022-11-20T02:43:37;12.32;;;5.03;;
46717;SDS011;32448;44.960;-0.698;2022-11-20T02:46:06;10.10;;;5.28;;
46717;SDS011;32448;44.960;-0.698;2022-11-20T02:48:34;10.75;;;5.13;;
46717;SDS011;32448;44.960;-0.698;2022-11-20T02:51:02;11.02;;;5.15;;
46717;SDS011;32448;44.960;-0.698;2022-11-20T02:53:29;10.32;;;5.55;;
46717;SDS011;32448;44.960;-0.698;2022-11-20T02:55:56;8.57;;;5.10;;
46717;SDS011;32448;44.960;-0.698;2022-11-20T02:58:23;9.88;;;5.45;;
46717;SDS011;32448;44.960;-0.698;2022-11-20T03:00:51;11.88;;;6.43;;
46717;SDS011;32448;44.960;-0.698;2022-11-20T03:03:19;7.53;;;5.15;;
46717;SDS011;32448;44.960;-0.698;2022-11-20T03:05:46;11.00;;;5.20;;
46717;SDS011;32448;44.960;-0.698;2022-11-20T03:08:13;13.73;;;5.55;;
46717;SDS011;32448;44.960;-0.698;2022-11-20T03:10:40;10.57;;;5.35;;
46717;SDS011;32448;44.960;-0.698;2022-11-20T03:13:08;11.00;;;5.72;;
46717;SDS011;32448;44.960;-0.698;2022-11-20T03:15:36;8.40;;;5.20;;
46717;SDS011;32448;44.960;-0.698;2022-11-20T03:18:03;10.18;;;4.97;;
46717;SDS011;32448;44.960;-0.698;2022-11-20T03:20:32;10.77;;;6.28;;
46717;SDS011;32448;44.960;-0.698;2022-11-20T03:23:00;10.50;;;6.13;;
46717;SDS011;32448;44.960;-0.698;2022-11-20T03:25:28;9.88;;;5.68;;
46717;SDS011;32448;44.960;-0.698;2022-11-20T03:27:55;10.98;;;5.53;;
46717;SDS011;32448;44.960;-0.698;2022-11-20T03:30:22;9.13;;;5.10;;
46717;SDS011;32448;44.960;-0.698;2022-11-20T03:32:55;10.35;;;5.32;;
46717;SDS011;32448;44.960;-0.698;2022-11-20T03:35:23;7.78;;;5.45;;
46717;SDS011;32448;44.960;-0.698;2022-11-20T03:37:50;8.57;;;5.38;;
46717;SDS011;32448;44.960;-0.698;2022-11-20T03:40:17;8.85;;;5.03;;
46717;SDS011;32448;44.960;-0.698;2022-11-20T03:42:45;9.43;;;5.88;;
46717;SDS011;32448;44.960;-0.698;2022-11-20T03:45:13;10.43;;;5.57;;
46717;SDS011;32448;44.960;-0.698;2022-11-20T03:47:41;13.18;;;6.38;;
46717;SDS011;32448;44.960;-0.698;2022-11-20T03:50:09;12.68;;;5.85;;
46717;SDS011;32448;44.960;-0.698;2022-11-20T03:52:39;14.65;;;6.03;;
46717;SDS011;32448;44.960;-0.698;2022-11-20T03:55:06;9.90;;;5.88;;
46717;SDS011;32448;44.960;-0.698;2022-11-20T03:57:34;9.90;;;5.75;;
46717;SDS011;32448;44.960;-0.698;2022-11-20T04:00:02;11.70;;;5.72;;
46717;SDS011;32448;44.960;-0.698;2022-11-20T04:02:30;11.02;;;5.65;;
46717;SDS011;32448;44.960;-0.698;2022-11-20T04:04:57;11.05;;;5.55;;
46717;SDS011;32448;44.960;-0.698;2022-11-20T04:07:24;11.65;;;5.20;;
46717;SDS011;32448;44.960;-0.698;2022-11-20T04:09:51;7.45;;;5.18;;
46717;SDS011;32448;44.960;-0.698;2022-11-20T04:12:19;11.18;;;5.57;;
46717;SDS011;32448;44.960;-0.698;2022-11-20T04:14:46;12.02;;;4.82;;
46717;SDS011;32448;44.960;-0.698;2022-11-20T04:17:13;8.77;;;4.57;;
46717;SDS011;32448;44.960;-0.698;2022-11-20T04:19:40;11.63;;;5.00;;
46717;SDS011;32448;44.960;-0.698;2022-11-20T04:22:07;8.77;;;4.70;;
46717;SDS011;32448;44.960;-0.698;2022-11-20T04:24:35;12.30;;;5.15;;
46717;SDS011;32448;44.960;-0.698;2022-11-20T04:27:02;12.18;;;5.28;;
46717;SDS011;32448;44.960;-0.698;2022-11-20T04:29:29;8.90;;;4.43;;
46717;SDS011;32448;44.960;-0.698;2022-11-20T04:31:56;9.38;;;4.80;;
46717;SDS011;32448;44.960;-0.698;2022-11-20T04:34:24;9.32;;;4.32;;
46717;SDS011;32448;44.960;-0.698;2022-11-20T04:36:51;8.27;;;4.38;;
46717;SDS011;32448;44.960;-0.698;2022-11-20T04:39:18;7.60;;;4.20;;
46717;SDS011;32448;44.960;-0.698;2022-11-20T04:41:46;11.27;;;4.85;;
46717;SDS011;32448;44.960;-0.698;2022-11-20T04:44:14;7.38;;;4.13;;
46717;SDS011;32448;44.960;-0.698;2022-11-20T04:46:41;7.72;;;4.57;;
46717;SDS011;32448;44.960;-0.698;2022-11-20T04:49:10;11.27;;;4.32;;
46717;SDS011;32448;44.960;-0.698;2022-11-20T04:51:37;10.10;;;4.25;;
46717;SDS011;32448;44.960;-0.698;2022-11-20T04:54:04;8.77;;;4.82;;
46717;SDS011;32448;44.960;-0.698;2022-11-20T04:56:32;9.95;;;4.10;;
46717;SDS011;32448;44.960;-0.698;2022-11-20T04:59:00;6.50;;;3.58;;
46717;SDS011;32448;44.960;-0.698;2022-11-20T05:01:28;7.53;;;3.80;;
46717;SDS011;32448;44.960;-0.698;2022-11-20T05:03:56;8.15;;;3.22;;
46717;SDS011;32448;44.960;-0.698;2022-11-20T05:06:23;7.35;;;3.40;;
46717;SDS011;32448;44.960;-0.698;2022-11-20T05:08:50;9.25;;;3.65;;
46717;SDS011;32448;44.960;-0.698;2022-11-20T05:11:19;8.77;;;3.25;;
46717;SDS011;32448;44.960;-0.698;2022-11-20T05:13:48;7.15;;;4.05;;
46717;SDS011;32448;44.960;-0.698;2022-11-20T05:16:20;7.20;;;3.00;;
46717;SDS011;32448;44.960;-0.698;2022-11-20T05:21:19;10.70;;;3.22;;
46717;SDS011;32448;44.960;-0.698;2022-11-20T05:23:46;5.13;;;2.95;;
46717;SDS011;32448;44.960;-0.698;2022-11-20T05:26:15;18.20;;;9.32;;
46717;SDS011;32448;44.960;-0.698;2022-11-20T05:28:48;24.48;;;12.00;;
46717;SDS011;32448;44.960;-0.698;2022-11-20T05:31:19;23.17;;;9.88;;
46717;SDS011;32448;44.960;-0.698;2022-11-20T05:33:53;14.68;;;7.00;;
46717;SDS011;32448;44.960;-0.698;2022-11-20T05:36:21;9.30;;;5.35;;
46717;SDS011;32448;44.960;-0.698;2022-11-20T05:38:48;10.35;;;3.97;;
46717;SDS011;32448;44.960;-0.698;2022-11-20T05:41:18;7.95;;;3.63;;
46717;SDS011;32448;44.960;-0.698;2022-11-20T05:43:47;10.55;;;3.35;;
46717;SDS011;32448;44.960;-0.698;2022-11-20T05:46:16;7.47;;;2.83;;
46717;SDS011;32448;44.960;-0.698;2022-11-20T05:48:53;5.43;;;2.75;;
46717;SDS011;32448;44.960;-0.698;2022-11-20T05:51:20;6.85;;;2.47;;
46717;SDS011;32448;44.960;-0.698;2022-11-20T05:53:48;7.88;;;2.75;;
46717;SDS011;32448;44.960;-0.698;2022-11-20T05:56:17;7.47;;;2.45;;
46717;SDS011;32448;44.960;-0.698;2022-11-20T05:58:47;6.50;;;2.63;;
46717;SDS011;32448;44.960;-0.698;2022-11-20T06:01:19;6.95;;;3.40;;
46717;SDS011;32448;44.960;-0.698;2022-11-20T06:03:48;6.18;;;3.55;;
46717;SDS011;32448;44.960;-0.698;2022-11-20T06:06:18;6.65;;;3.33;;
46717;SDS011;32448;44.960;-0.698;2022-11-20T06:08:46;8.88;;;3.05;;
46717;SDS011;32448;44.960;-0.698;2022-11-20T06:11:14;8.88;;;2.40;;
46717;SDS011;32448;44.960;-0.698;2022-11-20T06:13:42;6.72;;;2.10;;
46717;SDS011;32448;44.960;-0.698;2022-11-20T06:16:10;5.60;;;2.13;;
46717;SDS011;32448;44.960;-0.698;2022-11-20T06:18:39;5.57;;;2.15;;
46717;SDS011;32448;44.960;-0.698;2022-11-20T06:21:07;9.32;;;3.53;;
46717;SDS011;32448;44.960;-0.698;2022-11-20T06:23:36;9.45;;;3.42;;
46717;SDS011;32448;44.960;-0.698;2022-11-20T06:26:05;6.93;;;2.97;;
46717;SDS011;32448;44.960;-0.698;2022-11-20T06:28:34;21.80;;;6.47;;
46717;SDS011;32448;44.960;-0.698;2022-11-20T06:31:01;23.85;;;6.88;;
46717;SDS011;32448;44.960;-0.698;2022-11-20T06:33:29;11.88;;;4.60;;
46717;SDS011;32448;44.960;-0.698;2022-11-20T06:35:57;8.70;;;3.25;;
46717;SDS011;32448;44.960;-0.698;2022-11-20T06:38:31;5.45;;;2.20;;
46717;SDS011;32448;44.960;-0.698;2022-11-20T06:40:58;7.30;;;2.20;;
46717;SDS011;32448;44.960;-0.698;2022-11-20T06:43:25;4.82;;;1.88;;
46717;SDS011;32448;44.960;-0.698;2022-11-20T06:45:55;5.40;;;2.08;;
46717;SDS011;32448;44.960;-0.698;2022-11-20T06:48:23;6.38;;;2.28;;
46717;SDS011;32448;44.960;-0.698;2022-11-20T06:50:52;4.82;;;1.95;;
46717;SDS011;32448;44.960;-0.698;2022-11-20T06:53:19;5.35;;;2.15;;
46717;SDS011;32448;44.960;-0.698;2022-11-20T06:55:47;5.00;;;1.80;;
46717;SDS011;32448;44.960;-0.698;2022-11-20T06:58:16;4.47;;;1.73;;
46717;SDS011;32448;44.960;-0.698;2022-11-20T07:00:43;7.13;;;2.22;;
46717;SDS011;32448;44.960;-0.698;2022-11-20T07:03:11;7.88;;;1.95;;
46717;SDS011;32448;44.960;-0.698;2022-11-20T07:05:38;5.85;;;1.85;;
46717;SDS011;32448;44.960;-0.698;2022-11-20T07:08:06;4.40;;;1.90;;
46717;SDS011;32448;44.960;-0.698;2022-11-20T07:10:34;5.93;;;1.83;;
46717;SDS011;32448;44.960;-0.698;2022-11-20T07:13:02;6.90;;;2.05;;
46717;SDS011;32448;44.960;-0.698;2022-11-20T07:15:37;10.57;;;3.92;;
46717;SDS011;32448;44.960;-0.698;2022-11-20T07:18:04;9.18;;;2.97;;
46717;SDS011;32448;44.960;-0.698;2022-11-20T07:20:31;10.07;;;2.85;;
46717;SDS011;32448;44.960;-0.698;2022-11-20T07:22:59;6.95;;;2.20;;
46717;SDS011;32448;44.960;-0.698;2022-11-20T07:25:26;6.57;;;2.35;;
46717;SDS011;32448;44.960;-0.698;2022-11-20T07:27:58;4.82;;;1.95;;
46717;SDS011;32448;44.960;-0.698;2022-11-20T07:30:26;5.78;;;2.30;;
46717;SDS011;32448;44.960;-0.698;2022-11-20T07:32:56;9.90;;;2.95;;
46717;SDS011;32448;44.960;-0.698;2022-11-20T07:35:24;6.80;;;2.47;;
46717;SDS011;32448;44.960;-0.698;2022-11-20T07:37:51;8.45;;;2.70;;
46717;SDS011;32448;44.960;-0.698;2022-11-20T07:40:19;9.05;;;3.28;;
46717;SDS011;32448;44.960;-0.698;2022-11-20T07:42:53;6.30;;;2.92;;
46717;SDS011;32448;44.960;-0.698;2022-11-20T07:45:22;9.65;;;2.95;;
46717;SDS011;32448;44.960;-0.698;2022-11-20T07:47:50;7.03;;;3.05;;
46717;SDS011;32448;44.960;-0.698;2022-11-20T07:50:26;6.38;;;3.55;;
46717;SDS011;32448;44.960;-0.698;2022-11-20T07:53:01;8.20;;;3.40;;
46717;SDS011;32448;44.960;-0.698;2022-11-20T07:55:29;6.80;;;2.92;;
46717;SDS011;32448;44.960;-0.698;2022-11-20T07:57:57;12.68;;;3.20;;
46717;SDS011;32448;44.960;-0.698;2022-11-20T08:00:25;8.60;;;3.00;;
46717;SDS011;32448;44.960;-0.698;2022-11-20T08:02:53;5.78;;;2.95;;
46717;SDS011;32448;44.960;-0.698;2022-11-20T08:05:20;6.45;;;2.70;;
46717;SDS011;32448;44.960;-0.698;2022-11-20T08:07:48;10.77;;;2.60;;
46717;SDS011;32448;44.960;-0.698;2022-11-20T08:10:15;8.60;;;3.10;;
46717;SDS011;32448;44.960;-0.698;2022-11-20T08:12:43;7.05;;;2.83;;
46717;SDS011;32448;44.960;-0.698;2022-11-20T08:15:30;5.35;;;2.90;;
46717;SDS011;32448;44.960;-0.698;2022-11-20T08:17:59;4.72;;;2.60;;
46717;SDS011;32448;44.960;-0.698;2022-11-20T08:20:47;5.45;;;2.33;;
46717;SDS011;32448;44.960;-0.698;2022-11-20T08:23:17;3.97;;;2.28;;
46717;SDS011;32448;44.960;-0.698;2022-11-20T08:25:49;7.25;;;2.92;;
46717;SDS011;32448;44.960;-0.698;2022-11-20T08:28:17;6.20;;;3.00;;
46717;SDS011;32448;44.960;-0.698;2022-11-20T08:30:47;8.43;;;3.38;;
46717;SDS011;32448;44.960;-0.698;2022-11-20T08:33:16;6.53;;;3.70;;
46717;SDS011;32448;44.960;-0.698;2022-11-20T08:35:44;5.55;;;2.90;;
46717;SDS011;32448;44.960;-0.698;2022-11-20T08:38:11;5.65;;;2.72;;
46717;SDS011;32448;44.960;-0.698;2022-11-20T08:40:39;7.65;;;3.55;;
46717;SDS011;32448;44.960;-0.698;2022-11-20T08:43:06;7.53;;;2.92;;
46717;SDS011;32448;44.960;-0.698;2022-11-20T08:45:33;8.73;;;2.97;;
46717;SDS011;32448;44.960;-0.698;2022-11-20T08:48:02;7.90;;;3.13;;
46717;SDS011;32448;44.960;-0.698;2022-11-20T08:50:30;10.50;;;3.33;;
46717;SDS011;32448;44.960;-0.698;2022-11-20T08:53:04;9.40;;;3.22;;
46717;SDS011;32448;44.960;-0.698;2022-11-20T08:55:31;11.45;;;3.70;;
46717;SDS011;32448;44.960;-0.698;2022-11-20T08:58:02;9.60;;;3.08;;
46717;SDS011;32448;44.960;-0.698;2022-11-20T09:00:30;5.78;;;3.50;;
46717;SDS011;32448;44.960;-0.698;2022-11-20T09:02:59;10.10;;;3.45;;
46717;SDS011;32448;44.960;-0.698;2022-11-20T09:05:28;7.88;;;3.38;;
46717;SDS011;32448;44.960;-0.698;2022-11-20T09:07:56;8.88;;;4.68;;
46717;SDS011;32448;44.960;-0.698;2022-11-20T09:10:25;10.60;;;4.70;;
46717;SDS011;32448;44.960;-0.698;2022-11-20T09:12:53;17.42;;;7.10;;
46717;SDS011;32448;44.960;-0.698;2022-11-20T09:15:22;17.05;;;6.30;;
46717;SDS011;32448;44.960;-0.698;2022-11-20T09:17:51;13.18;;;4.35;;
46717;SDS011;32448;44.960;-0.698;2022-11-20T09:20:19;6.78;;;4.40;;
46717;SDS011;32448;44.960;-0.698;2022-11-20T09:22:47;14.95;;;5.30;;
46717;SDS011;32448;44.960;-0.698;2022-11-20T09:25:14;13.50;;;5.07;;
46717;SDS011;32448;44.960;-0.698;2022-11-20T09:27:41;11.35;;;4.15;;
46717;SDS011;32448;44.960;-0.698;2022-11-20T09:30:10;18.15;;;5.18;;
46717;SDS011;32448;44.960;-0.698;2022-11-20T09:32:38;11.20;;;4.15;;
46717;SDS011;32448;44.960;-0.698;2022-11-20T09:35:05;9.75;;;4.40;;
46717;SDS011;32448;44.960;-0.698;2022-11-20T09:37:34;8.75;;;3.60;;
46717;SDS011;32448;44.960;-0.698;2022-11-20T09:40:02;10.95;;;3.63;;
46717;SDS011;32448;44.960;-0.698;2022-11-20T09:45:35;7.60;;;3.58;;
46717;SDS011;32448;44.960;-0.698;2022-11-20T09:56:23;13.20;;;4.53;;
46717;SDS011;32448;44.960;-0.698;2022-11-20T09:58:53;15.18;;;5.05;;
46717;SDS011;32448;44.960;-0.698;2022-11-20T10:01:26;14.75;;;4.88;;
46717;SDS011;32448;44.960;-0.698;2022-11-20T10:04:12;16.02;;;7.80;;
46717;SDS011;32448;44.960;-0.698;2022-11-20T10:07:02;14.65;;;4.97;;
46717;SDS011;32448;44.960;-0.698;2022-11-20T10:09:55;19.88;;;5.47;;
46717;SDS011;32448;44.960;-0.698;2022-11-20T10:12:27;16.92;;;6.28;;
46717;SDS011;32448;44.960;-0.698;2022-11-20T10:20:43;11.45;;;3.42;;
46717;SDS011;32448;44.960;-0.698;2022-11-20T10:26:21;14.68;;;6.75;;
46717;SDS011;32448;44.960;-0.698;2022-11-20T10:31:45;27.15;;;11.55;;
46717;SDS011;32448;44.960;-0.698;2022-11-20T10:37:11;7.75;;;4.15;;
46717;SDS011;32448;44.960;-0.698;2022-11-20T10:40:00;8.85;;;5.00;;
46717;SDS011;32448;44.960;-0.698;2022-11-20T10:42:53;5.90;;;2.60;;
46717;SDS011;32448;44.960;-0.698;2022-11-20T10:45:31;9.07;;;2.78;;
46717;SDS011;32448;44.960;-0.698;2022-11-20T10:50:36;14.35;;;6.35;;
46717;SDS011;32448;44.960;-0.698;2022-11-20T10:53:32;7.00;;;3.72;;
46717;SDS011;32448;44.960;-0.698;2022-11-20T10:56:27;6.63;;;2.55;;
46717;SDS011;32448;44.960;-0.698;2022-11-20T11:02:39;6.03;;;3.05;;
46717;SDS011;32448;44.960;-0.698;2022-11-20T11:05:24;9.75;;;3.35;;
46717;SDS011;32448;44.960;-0.698;2022-11-20T11:08:15;8.77;;;3.80;;
46717;SDS011;32448;44.960;-0.698;2022-11-20T11:15:46;12.98;;;4.75;;
46717;SDS011;32448;44.960;-0.698;2022-11-20T11:18:31;8.75;;;4.82;;
46717;SDS011;32448;44.960;-0.698;2022-11-20T11:21:01;25.08;;;10.68;;
46717;SDS011;32448;44.960;-0.698;2022-11-20T11:26:18;9.90;;;4.40;;
46717;SDS011;32448;44.960;-0.698;2022-11-20T11:28:55;12.02;;;3.40;;
46717;SDS011;32448;44.960;-0.698;2022-11-20T11:31:32;21.90;;;4.22;;
46717;SDS011;32448;44.960;-0.698;2022-11-20T11:34:05;21.60;;;4.32;;
46717;SDS011;32448;44.960;-0.698;2022-11-20T11:36:34;81.95;;;57.90;;
46717;SDS011;32448;44.960;-0.698;2022-11-20T11:39:03;30.35;;;14.68;;
46717;SDS011;32448;44.960;-0.698;2022-11-20T11:41:34;25.25;;;7.38;;
46717;SDS011;32448;44.960;-0.698;2022-11-20T11:44:15;34.10;;;13.07;;
46717;SDS011;32448;44.960;-0.698;2022-11-20T11:47:23;26.65;;;7.05;;
46717;SDS011;32448;44.960;-0.698;2022-11-20T11:50:07;27.55;;;10.35;;
46717;SDS011;32448;44.960;-0.698;2022-11-20T11:52:56;29.55;;;9.02;;
46717;SDS011;32448;44.960;-0.698;2022-11-20T11:55:30;23.73;;;4.30;;
46717;SDS011;32448;44.960;-0.698;2022-11-20T11:58:06;34.58;;;6.25;;
46717;SDS011;32448;44.960;-0.698;2022-11-20T12:00:36;34.17;;;10.38;;
46717;SDS011;32448;44.960;-0.698;2022-11-20T12:03:13;33.58;;;7.55;;
46717;SDS011;32448;44.960;-0.698;2022-11-20T12:05:43;32.47;;;4.45;;
46717;SDS011;32448;44.960;-0.698;2022-11-20T12:08:36;28.13;;;4.05;;
46717;SDS011;32448;44.960;-0.698;2022-11-20T12:11:23;29.98;;;4.07;;
46717;SDS011;32448;44.960;-0.698;2022-11-20T12:14:15;31.42;;;5.15;;
46717;SDS011;32448;44.960;-0.698;2022-11-20T12:17:10;36.80;;;5.65;;
46717;SDS011;32448;44.960;-0.698;2022-11-20T12:19:39;26.75;;;4.65;;
46717;SDS011;32448;44.960;-0.698;2022-11-20T12:30:41;32.40;;;5.10;;
46717;SDS011;32448;44.960;-0.698;2022-11-20T12:38:54;31.65;;;4.57;;
46717;SDS011;32448;44.960;-0.698;2022-11-20T12:41:36;31.15;;;4.60;;
46717;SDS011;32448;44.960;-0.698;2022-11-20T13:07:35;20.77;;;3.05;;
46717;SDS011;32448;44.960;-0.698;2022-11-20T13:10:03;21.15;;;2.90;;
46717;SDS011;32448;44.960;-0.698;2022-11-20T13:12:57;17.67;;;2.53;;
46717;SDS011;32448;44.960;-0.698;2022-11-20T13:15:52;15.98;;;2.58;;
46717;SDS011;32448;44.960;-0.698;2022-11-20T13:18:50;17.25;;;2.75;;
46717;SDS011;32448;44.960;-0.698;2022-11-20T13:21:20;17.92;;;3.28;;
46717;SDS011;32448;44.960;-0.698;2022-11-20T13:24:20;21.60;;;2.75;;
46717;SDS011;32448;44.960;-0.698;2022-11-20T13:29:36;17.38;;;2.45;;
46717;SDS011;32448;44.960;-0.698;2022-11-20T13:32:13;14.98;;;3.03;;
46717;SDS011;32448;44.960;-0.698;2022-11-20T13:34:56;11.45;;;2.83;;
46717;SDS011;32448;44.960;-0.698;2022-11-20T13:37:32;18.02;;;3.47;;
46717;SDS011;32448;44.960;-0.698;2022-11-20T13:45:10;18.85;;;2.70;;
46717;SDS011;32448;44.960;-0.698;2022-11-20T13:47:49;12.40;;;2.83;;
46717;SDS011;32448;44.960;-0.698;2022-11-20T13:50:18;17.02;;;2.47;;
46717;SDS011;32448;44.960;-0.698;2022-11-20T14:00:48;11.77;;;2.30;;
46717;SDS011;32448;44.960;-0.698;2022-11-20T14:03:38;12.45;;;4.20;;
46717;SDS011;32448;44.960;-0.698;2022-11-20T14:06:28;17.88;;;5.47;;
46717;SDS011;32448;44.960;-0.698;2022-11-20T14:08:58;12.52;;;2.83;;
46717;SDS011;32448;44.960;-0.698;2022-11-20T14:11:29;13.32;;;2.63;;
46717;SDS011;32448;44.960;-0.698;2022-11-20T14:16:35;17.60;;;2.70;;
46717;SDS011;32448;44.960;-0.698;2022-11-20T14:21:48;12.55;;;2.03;;
46717;SDS011;32448;44.960;-0.698;2022-11-20T14:24:21;13.27;;;2.05;;
46717;SDS011;32448;44.960;-0.698;2022-11-20T14:26:50;9.90;;;2.78;;
46717;SDS011;32448;44.960;-0.698;2022-11-20T14:29:20;12.55;;;1.92;;
46717;SDS011;32448;44.960;-0.698;2022-11-20T14:31:53;11.95;;;1.90;;
46717;SDS011;32448;44.960;-0.698;2022-11-20T14:34:26;18.92;;;2.60;;
46717;SDS011;32448;44.960;-0.698;2022-11-20T14:36:57;15.65;;;2.60;;
46717;SDS011;32448;44.960;-0.698;2022-11-20T14:39:47;13.02;;;2.65;;
46717;SDS011;32448;44.960;-0.698;2022-11-20T14:42:18;18.15;;;3.10;;
46717;SDS011;32448;44.960;-0.698;2022-11-20T14:44:50;19.90;;;3.22;;
46717;SDS011;32448;44.960;-0.698;2022-11-20T14:47:23;16.95;;;3.50;;
46717;SDS011;32448;44.960;-0.698;2022-11-20T14:49:56;21.15;;;3.58;;
46717;SDS011;32448;44.960;-0.698;2022-11-20T14:52:26;21.65;;;3.75;;
46717;SDS011;32448;44.960;-0.698;2022-11-20T14:54:57;27.25;;;4.55;;
46717;SDS011;32448;44.960;-0.698;2022-11-20T14:57:32;20.52;;;4.05;;
46717;SDS011;32448;44.960;-0.698;2022-11-20T15:02:38;19.40;;;3.22;;
46717;SDS011;32448;44.960;-0.698;2022-11-20T15:07:37;19.92;;;3.47;;
46717;SDS011;32448;44.960;-0.698;2022-11-20T15:10:23;15.07;;;3.15;;
46717;SDS011;32448;44.960;-0.698;2022-11-20T15:12:56;20.08;;;3.60;;
46717;SDS011;32448;44.960;-0.698;2022-11-20T15:15:46;14.93;;;3.20;;
46717;SDS011;32448;44.960;-0.698;2022-11-20T15:18:17;27.48;;;4.38;;
46717;SDS011;32448;44.960;-0.698;2022-11-20T15:20:50;16.33;;;3.33;;
46717;SDS011;32448;44.960;-0.698;2022-11-20T15:23:20;17.02;;;3.00;;
46717;SDS011;32448;44.960;-0.698;2022-11-20T15:25:48;19.48;;;3.83;;
46717;SDS011;32448;44.960;-0.698;2022-11-20T15:28:27;23.30;;;4.10;;
46717;SDS011;32448;44.960;-0.698;2022-11-20T15:30:59;16.58;;;3.70;;
46717;SDS011;32448;44.960;-0.698;2022-11-20T15:33:32;16.48;;;3.58;;
46717;SDS011;32448;44.960;-0.698;2022-11-20T15:36:01;19.52;;;4.28;;
46717;SDS011;32448;44.960;-0.698;2022-11-20T15:38:29;14.90;;;3.78;;
46717;SDS011;32448;44.960;-0.698;2022-11-20T15:40:57;18.90;;;4.22;;
46717;SDS011;32448;44.960;-0.698;2022-11-20T15:43:25;21.80;;;4.20;;
46717;SDS011;32448;44.960;-0.698;2022-11-20T15:45:53;18.48;;;5.28;;
46717;SDS011;32448;44.960;-0.698;2022-11-20T15:48:26;20.17;;;4.60;;
46717;SDS011;32448;44.960;-0.698;2022-11-20T15:50:57;16.05;;;4.18;;
46717;SDS011;32448;44.960;-0.698;2022-11-20T15:53:25;17.80;;;3.97;;
46717;SDS011;32448;44.960;-0.698;2022-11-20T15:55:53;16.15;;;3.42;;
46717;SDS011;32448;44.960;-0.698;2022-11-20T15:58:21;22.38;;;3.58;;
46717;SDS011;32448;44.960;-0.698;2022-11-20T16:00:50;16.63;;;3.10;;
46717;SDS011;32448;44.960;-0.698;2022-11-20T16:03:18;16.60;;;3.25;;
46717;SDS011;32448;44.960;-0.698;2022-11-20T16:05:48;20.45;;;4.05;;
46717;SDS011;32448;44.960;-0.698;2022-11-20T16:08:16;16.77;;;3.38;;
46717;SDS011;32448;44.960;-0.698;2022-11-20T16:10:44;17.85;;;4.50;;
46717;SDS011;32448;44.960;-0.698;2022-11-20T16:13:14;22.35;;;5.00;;
46717;SDS011;32448;44.960;-0.698;2022-11-20T16:16:32;17.75;;;4.35;;
46717;SDS011;32448;44.960;-0.698;2022-11-20T16:19:02;21.83;;;4.88;;
46717;SDS011;32448;44.960;-0.698;2022-11-20T16:21:30;20.60;;;5.10;;
46717;SDS011;32448;44.960;-0.698;2022-11-20T16:24:03;23.98;;;4.60;;
46717;SDS011;32448;44.960;-0.698;2022-11-20T16:26:32;18.52;;;5.68;;
46717;SDS011;32448;44.960;-0.698;2022-11-20T16:28:59;22.17;;;7.68;;
46717;SDS011;32448;44.960;-0.698;2022-11-20T16:31:28;34.22;;;12.27;;
46717;SDS011;32448;44.960;-0.698;2022-11-20T16:33:56;62.38;;;19.00;;
46717;SDS011;32448;44.960;-0.698;2022-11-20T16:36:25;65.53;;;21.50;;
46717;SDS011;32448;44.960;-0.698;2022-11-20T16:38:54;75.97;;;23.30;;
46717;SDS011;32448;44.960;-0.698;2022-11-20T16:41:23;44.72;;;13.82;;
46717;SDS011;32448;44.960;-0.698;2022-11-20T16:43:56;40.33;;;12.48;;
46717;SDS011;32448;44.960;-0.698;2022-11-20T16:46:28;36.40;;;11.32;;